createdAt,value
2023-02-15T00:03:06.497Z,21.83
2023-02-15T00:08:12.295Z,21.08
2023-02-15T00:13:16.866Z,19.55
2023-02-15T00:18:21.284Z,20.58
2023-02-15T00:23:29.212Z,21.92
2023-02-15T00:28:34.177Z,20.05
2023-02-15T00:33:39.662Z,18.50
2023-02-15T00:38:46.191Z,21.63
2023-02-15T00:43:50.872Z,37.10
2023-02-15T00:48:55.489Z,20.73
2023-02-15T00:54:02.719Z,17.00
2023-02-15T00:59:07.797Z,21.77
2023-02-15T01:04:12.193Z,22.05
2023-02-15T01:09:18.137Z,22.80
2023-02-15T01:19:27.529Z,19.95
2023-02-15T01:24:33.778Z,21.45
2023-02-15T01:29:41.520Z,22.73
2023-02-15T01:34:46.550Z,17.38
2023-02-15T01:39:52.706Z,18.63
2023-02-15T01:44:58.807Z,19.90
2023-02-15T01:50:11.210Z,19.17
2023-02-15T01:55:18.074Z,18.85
2023-02-15T02:00:24.173Z,20.55
2023-02-15T02:05:28.925Z,20.63
2023-02-15T02:10:34.968Z,21.27
2023-02-15T02:15:46.918Z,20.48
2023-02-15T02:21:38.451Z,22.48
2023-02-15T02:27:18.276Z,21.65
2023-02-15T02:33:03.771Z,20.95
2023-02-15T02:38:14.264Z,20.08
2023-02-15T02:43:41.810Z,25.38
2023-02-15T02:48:51.280Z,22.48
2023-02-15T02:54:03.783Z,22.42
2023-02-15T02:59:15.361Z,24.75
2023-02-15T03:04:25.889Z,23.38
2023-02-15T03:09:42.642Z,22.92
2023-02-15T03:14:52.018Z,20.13
2023-02-15T03:20:02.931Z,19.92
2023-02-15T03:25:17.455Z,23.85
2023-02-15T03:30:25.482Z,22.20
2023-02-15T03:35:40.362Z,22.17
2023-02-15T03:41:05.699Z,19.50
2023-02-15T03:46:20.489Z,21.25
2023-02-15T03:51:39.210Z,19.35
2023-02-15T03:57:05.332Z,22.27
2023-02-15T04:07:20.316Z,25.50
2023-02-15T04:17:30.004Z,21.80
2023-02-15T04:22:53.585Z,26.55
2023-02-15T04:27:59.875Z,23.70
2023-02-15T04:33:05.397Z,26.50
2023-02-15T04:38:11.224Z,18.42
2023-02-15T04:43:15.715Z,17.88
2023-02-15T04:48:20.512Z,18.85
2023-02-15T04:53:27.971Z,18.73
2023-02-15T04:58:32.865Z,19.38
2023-02-15T05:03:37.364Z,21.50
2023-02-15T05:08:43.337Z,23.35
2023-02-15T05:13:48.237Z,24.60
2023-02-15T05:18:53.683Z,26.73
2023-02-15T05:23:59.767Z,36.10
2023-02-15T05:29:04.276Z,21.30
2023-02-15T05:34:08.940Z,22.10
2023-02-15T05:39:17.864Z,21.92
2023-02-15T05:44:26.916Z,27.77
2023-02-15T05:49:32.475Z,29.83
2023-02-15T05:54:38.332Z,28.85
2023-02-15T05:59:43.258Z,25.63
2023-02-15T06:04:47.664Z,34.20
2023-02-15T06:09:53.560Z,25.58
2023-02-15T06:14:58.099Z,26.92
2023-02-15T06:20:02.607Z,24.10
2023-02-15T06:25:11.144Z,21.13
2023-02-15T06:30:16.595Z,22.70
2023-02-15T06:35:22.036Z,23.48
2023-02-15T06:40:27.935Z,26.42
2023-02-15T06:50:37.170Z,24.40
2023-02-15T06:55:43.262Z,22.17
2023-02-15T07:00:47.643Z,23.13
2023-02-15T07:05:57.193Z,29.02
2023-02-15T07:11:17.439Z,24.65
2023-02-15T07:16:22.292Z,34.67
2023-02-15T07:21:26.908Z,33.73
2023-02-15T07:26:33.964Z,20.77
2023-02-15T07:31:38.590Z,19.90
2023-02-15T07:36:45.163Z,26.05
2023-02-15T07:41:51.145Z,24.25
2023-02-15T07:46:56.580Z,23.52
2023-02-15T07:52:03.441Z,24.10
2023-02-15T07:57:09.746Z,21.50
2023-02-15T08:02:14.338Z,24.95
2023-02-15T08:07:19.165Z,21.43
2023-02-15T08:12:25.141Z,20.52
2023-02-15T08:17:29.809Z,20.35
2023-02-15T08:22:34.289Z,21.33
2023-02-15T08:27:40.200Z,22.63
2023-02-15T08:37:48.947Z,22.27
2023-02-15T08:42:54.879Z,21.83
2023-02-15T08:53:04.870Z,23.20
2023-02-15T08:58:11.259Z,20.40
2023-02-15T09:03:16.175Z,19.85
2023-02-15T09:08:21.236Z,19.87
2023-02-15T09:13:27.354Z,20.00
2023-02-15T09:18:33.254Z,17.08
2023-02-15T09:28:44.873Z,16.80
2023-02-15T09:33:52.960Z,18.95
2023-02-15T09:38:59.769Z,17.27
2023-02-15T09:44:16.790Z,17.65
2023-02-15T09:49:33.502Z,19.55
2023-02-15T09:55:09.093Z,19.65
2023-02-15T10:00:24.362Z,17.80
2023-02-15T10:05:40.397Z,19.37
2023-02-15T10:16:09.061Z,21.60
2023-02-15T10:21:23.244Z,21.45
2023-02-15T10:26:33.384Z,19.30
2023-02-15T10:31:49.881Z,19.38
2023-02-15T10:37:14.222Z,18.95
2023-02-15T10:42:28.711Z,18.60
2023-02-15T10:47:48.552Z,18.05
2023-02-15T10:53:06.823Z,21.13
2023-02-15T10:58:19.510Z,21.50
2023-02-15T11:03:46.438Z,33.30
2023-02-15T11:08:56.303Z,19.88
2023-02-15T11:14:04.961Z,21.25
2023-02-15T11:19:16.650Z,19.33
2023-02-15T11:24:22.781Z,22.92
2023-02-15T11:29:33.702Z,20.20
2023-02-15T11:34:50.745Z,21.50
2023-02-15T11:39:58.288Z,19.83
2023-02-15T11:45:11.164Z,21.67
2023-02-15T11:56:05.179Z,16.55
2023-02-15T12:01:17.738Z,27.08
2023-02-15T12:06:27.604Z,22.40
2023-02-15T12:11:39.394Z,23.65
2023-02-15T12:16:47.427Z,19.80
2023-02-15T12:21:55.203Z,19.77
2023-02-15T12:27:03.093Z,20.92
2023-02-15T12:32:12.332Z,18.33
2023-02-15T12:37:25.076Z,19.63
2023-02-15T12:42:43.075Z,20.00
2023-02-15T12:47:49.042Z,21.10
2023-02-15T12:53:09.781Z,20.83
2023-02-15T12:58:19.725Z,19.58
2023-02-15T13:03:27.114Z,19.90
2023-02-15T13:08:35.779Z,20.20
2023-02-15T13:13:53.035Z,18.65
2023-02-15T13:18:57.477Z,19.40
2023-02-15T13:24:07.600Z,19.85
2023-02-15T13:29:20.838Z,18.67
2023-02-15T13:34:28.522Z,19.30
2023-02-15T13:39:41.352Z,21.27
2023-02-15T13:45:16.843Z,19.02
2023-02-15T13:50:36.073Z,18.80
2023-02-15T13:55:46.459Z,17.50
2023-02-15T14:01:03.508Z,21.48
2023-02-15T14:06:39.070Z,20.52
2023-02-15T14:11:53.973Z,21.83
2023-02-15T14:17:07.408Z,22.50
2023-02-15T14:22:22.849Z,22.45
2023-02-15T14:27:43.921Z,18.60
2023-02-15T14:32:50.888Z,18.58
2023-02-15T14:38:02.454Z,19.33
2023-02-15T14:43:14.071Z,19.88
2023-02-15T14:48:26.998Z,22.50
2023-02-15T14:53:39.710Z,17.05
2023-02-15T14:59:01.520Z,21.90
2023-02-15T15:04:09.897Z,19.15
2023-02-15T15:09:21.526Z,17.73
2023-02-15T15:14:44.258Z,15.77
2023-02-15T15:20:14.717Z,17.35
2023-02-15T15:25:53.795Z,16.65
2023-02-15T15:31:04.159Z,18.38
2023-02-15T15:36:30.481Z,19.23
2023-02-15T15:41:43.877Z,18.60
2023-02-15T15:47:16.961Z,26.65
2023-02-15T15:52:23.739Z,21.33
2023-02-15T15:57:31.469Z,25.95
2023-02-15T16:02:37.284Z,23.85
2023-02-15T16:07:43.581Z,20.65
2023-02-15T16:12:51.381Z,27.15
2023-02-15T16:17:59.522Z,27.95
2023-02-15T16:23:28.427Z,28.25
2023-02-15T16:28:32.849Z,25.17
2023-02-15T16:33:40.722Z,27.90
2023-02-15T16:39:09.801Z,32.78
2023-02-15T16:44:19.662Z,36.85
2023-02-15T16:49:28.389Z,62.72
2023-02-15T16:54:33.573Z,39.28
2023-02-15T16:59:43.339Z,82.47
2023-02-15T17:05:08.485Z,55.88
2023-02-15T17:10:29.113Z,63.53
2023-02-15T17:15:36.267Z,55.08
2023-02-15T17:20:44.665Z,56.97
2023-02-15T17:25:50.644Z,53.35
2023-02-15T17:30:56.763Z,58.30
2023-02-15T17:36:09.917Z,53.53
2023-02-15T17:41:14.406Z,64.57
2023-02-15T17:46:22.844Z,60.35
2023-02-15T17:51:29.356Z,65.35
2023-02-15T17:56:34.105Z,68.20
2023-02-15T18:02:10.258Z,101.72
2023-02-15T18:07:41.048Z,67.50
2023-02-15T18:12:54.015Z,74.90
2023-02-15T18:18:06.248Z,74.95
2023-02-15T18:23:14.310Z,68.93
2023-02-15T18:28:18.847Z,69.00
2023-02-15T18:33:34.395Z,74.00
2023-02-15T18:43:45.109Z,74.55
2023-02-15T18:48:50.011Z,68.20
2023-02-15T18:53:56.117Z,72.28
2023-02-15T18:59:00.531Z,71.55
2023-02-15T19:04:04.935Z,71.72
2023-02-15T19:09:15.994Z,76.95
2023-02-15T19:14:28.855Z,76.40
2023-02-15T19:19:33.464Z,82.43
2023-02-15T19:24:42.296Z,81.90
2023-02-15T19:29:46.855Z,78.70
2023-02-15T19:34:51.288Z,75.68
2023-02-15T19:39:57.320Z,70.95
2023-02-15T19:50:08.287Z,68.63
2023-02-15T19:55:23.448Z,80.57
2023-02-15T20:00:30.050Z,96.93
2023-02-15T20:05:38.501Z,69.43
2023-02-15T20:10:45.504Z,70.93
2023-02-15T20:15:50.910Z,67.30
2023-02-15T20:20:56.704Z,74.45
2023-02-15T20:26:08.439Z,79.32
2023-02-15T20:31:16.671Z,76.15
2023-02-15T20:36:23.218Z,76.80
2023-02-15T20:41:39.216Z,74.30
2023-02-15T20:46:43.780Z,78.53
2023-02-15T20:51:48.494Z,71.30
2023-02-15T20:56:55.359Z,72.03
2023-02-15T21:02:02.368Z,72.32
2023-02-15T21:07:06.898Z,73.00
2023-02-15T21:12:15.299Z,80.50
2023-02-15T21:17:19.653Z,72.70
2023-02-15T21:22:24.894Z,74.50
2023-02-15T21:27:30.647Z,92.03
2023-02-15T21:32:35.783Z,81.57
2023-02-15T21:37:41.906Z,74.13
2023-02-15T21:43:05.008Z,73.55
2023-02-15T21:48:09.455Z,79.38
2023-02-15T21:53:17.991Z,73.47
2023-02-15T21:58:26.358Z,63.90
2023-02-15T22:03:34.396Z,62.85
2023-02-15T22:08:38.905Z,55.72
2023-02-15T22:13:46.062Z,54.22
2023-02-15T22:18:51.159Z,53.85
2023-02-15T22:23:55.531Z,49.05
2023-02-15T22:29:01.606Z,45.35
2023-02-15T22:34:06.312Z,47.67
2023-02-15T22:39:11.320Z,47.83
2023-02-15T22:44:21.337Z,41.78
2023-02-15T22:49:25.771Z,42.03
2023-02-15T22:54:30.182Z,39.60
2023-02-15T22:59:36.349Z,36.42
2023-02-15T23:04:40.697Z,36.60
2023-02-15T23:09:45.387Z,33.58
2023-02-15T23:14:51.614Z,32.53
2023-02-15T23:19:56.144Z,32.92
2023-02-15T23:25:00.412Z,30.77
2023-02-15T23:30:13.626Z,32.15
2023-02-15T23:35:19.927Z,29.83
2023-02-15T23:40:41.663Z,32.28
2023-02-15T23:45:47.927Z,29.42
2023-02-15T23:55:57.909Z,29.75
